sensor_id;sensor_type;location;lat;lon;timestamp;P1;durP1;ratioP1;P2;durP2;ratioP2
60054;SDS011;45930;53.514;55.904;2023-02-05T00:00:35;167.85;;;78.20;;
60054;SDS011;45930;53.514;55.904;2023-02-05T00:01:36;140.20;;;68.77;;
60054;SDS011;45930;53.514;55.904;2023-02-05T00:02:36;143.03;;;68.17;;
60054;SDS011;45930;53.514;55.904;2023-02-05T00:03:37;148.03;;;67.67;;
60054;SDS011;45930;53.514;55.904;2023-02-05T00:04:38;133.35;;;69.53;;
60054;SDS011;45930;53.514;55.904;2023-02-05T00:05:39;124.07;;;62.87;;
60054;SDS011;45930;53.514;55.904;2023-02-05T00:06:40;135.67;;;66.77;;
60054;SDS011;45930;53.514;55.904;2023-02-05T00:07:41;151.30;;;69.30;;
60054;SDS011;45930;53.514;55.904;2023-02-05T00:08:41;134.13;;;64.80;;
60054;SDS011;45930;53.514;55.904;2023-02-05T00:09:42;147.27;;;66.27;;
60054;SDS011;45930;53.514;55.904;2023-02-05T00:10:43;139.90;;;65.63;;
60054;SDS011;45930;53.514;55.904;2023-02-05T00:11:43;131.30;;;63.37;;
60054;SDS011;45930;53.514;55.904;2023-02-05T00:13:02;125.80;;;65.45;;
60054;SDS011;45930;53.514;55.904;2023-02-05T00:14:03;131.07;;;63.90;;
60054;SDS011;45930;53.514;55.904;2023-02-05T00:15:04;155.77;;;68.03;;
60054;SDS011;45930;53.514;55.904;2023-02-05T00:16:06;142.05;;;66.97;;
60054;SDS011;45930;53.514;55.904;2023-02-05T00:17:17;125.95;;;62.28;;
60054;SDS011;45930;53.514;55.904;2023-02-05T00:18:18;133.57;;;64.03;;
60054;SDS011;45930;53.514;55.904;2023-02-05T00:19:19;135.67;;;66.60;;
60054;SDS011;45930;53.514;55.904;2023-02-05T00:20:19;131.73;;;66.47;;
60054;SDS011;45930;53.514;55.904;2023-02-05T00:21:21;134.47;;;64.63;;
60054;SDS011;45930;53.514;55.904;2023-02-05T00:22:22;126.13;;;62.42;;
60054;SDS011;45930;53.514;55.904;2023-02-05T00:23:23;134.57;;;62.73;;
60054;SDS011;45930;53.514;55.904;2023-02-05T00:24:27;129.15;;;64.93;;
60054;SDS011;45930;53.514;55.904;2023-02-05T00:25:27;133.43;;;62.67;;
60054;SDS011;45930;53.514;55.904;2023-02-05T00:26:28;129.60;;;61.93;;
60054;SDS011;45930;53.514;55.904;2023-02-05T00:27:29;118.30;;;60.57;;
60054;SDS011;45930;53.514;55.904;2023-02-05T00:28:30;125.60;;;59.90;;
60054;SDS011;45930;53.514;55.904;2023-02-05T00:29:32;119.05;;;60.03;;
60054;SDS011;45930;53.514;55.904;2023-02-05T00:30:33;122.07;;;59.20;;
60054;SDS011;45930;53.514;55.904;2023-02-05T00:31:34;118.60;;;61.27;;
60054;SDS011;45930;53.514;55.904;2023-02-05T00:32:34;113.13;;;56.73;;
60054;SDS011;45930;53.514;55.904;2023-02-05T00:33:36;125.03;;;58.25;;
60054;SDS011;45930;53.514;55.904;2023-02-05T00:34:37;121.47;;;58.95;;
60054;SDS011;45930;53.514;55.904;2023-02-05T00:35:40;115.30;;;60.40;;
60054;SDS011;45930;53.514;55.904;2023-02-05T00:36:42;127.28;;;61.47;;
60054;SDS011;45930;53.514;55.904;2023-02-05T00:37:43;120.97;;;59.17;;
60054;SDS011;45930;53.514;55.904;2023-02-05T00:38:43;118.20;;;56.87;;
60054;SDS011;45930;53.514;55.904;2023-02-05T00:39:45;122.47;;;57.67;;
60054;SDS011;45930;53.514;55.904;2023-02-05T00:40:46;120.00;;;59.30;;
60054;SDS011;45930;53.514;55.904;2023-02-05T00:41:46;122.93;;;57.57;;
60054;SDS011;45930;53.514;55.904;2023-02-05T00:42:47;115.17;;;57.43;;
60054;SDS011;45930;53.514;55.904;2023-02-05T00:43:48;114.53;;;58.37;;
60054;SDS011;45930;53.514;55.904;2023-02-05T00:44:49;111.70;;;58.57;;
60054;SDS011;45930;53.514;55.904;2023-02-05T00:45:49;107.13;;;56.10;;
60054;SDS011;45930;53.514;55.904;2023-02-05T00:46:50;121.10;;;58.73;;
60054;SDS011;45930;53.514;55.904;2023-02-05T00:47:51;114.87;;;59.60;;
60054;SDS011;45930;53.514;55.904;2023-02-05T00:48:52;122.53;;;61.63;;
60054;SDS011;45930;53.514;55.904;2023-02-05T00:49:52;117.27;;;56.57;;
60054;SDS011;45930;53.514;55.904;2023-02-05T00:50:53;123.67;;;55.47;;
60054;SDS011;45930;53.514;55.904;2023-02-05T00:51:54;115.63;;;57.33;;
60054;SDS011;45930;53.514;55.904;2023-02-05T00:52:55;114.90;;;56.47;;
60054;SDS011;45930;53.514;55.904;2023-02-05T00:53:55;120.90;;;58.83;;
60054;SDS011;45930;53.514;55.904;2023-02-05T00:54:56;116.20;;;59.47;;
60054;SDS011;45930;53.514;55.904;2023-02-05T00:55:57;142.80;;;62.60;;
60054;SDS011;45930;53.514;55.904;2023-02-05T00:56:58;118.70;;;60.57;;
60054;SDS011;45930;53.514;55.904;2023-02-05T00:57:59;122.40;;;58.53;;
60054;SDS011;45930;53.514;55.904;2023-02-05T00:59:00;122.75;;;59.95;;
60054;SDS011;45930;53.514;55.904;2023-02-05T01:00:02;111.70;;;58.58;;
60054;SDS011;45930;53.514;55.904;2023-02-05T01:01:04;116.03;;;60.70;;
60054;SDS011;45930;53.514;55.904;2023-02-05T01:02:05;126.40;;;60.50;;
60054;SDS011;45930;53.514;55.904;2023-02-05T01:03:06;116.53;;;54.43;;
60054;SDS011;45930;53.514;55.904;2023-02-05T01:04:07;119.53;;;61.00;;
60054;SDS011;45930;53.514;55.904;2023-02-05T01:05:07;110.93;;;58.17;;
60054;SDS011;45930;53.514;55.904;2023-02-05T01:06:08;117.53;;;56.53;;
60054;SDS011;45930;53.514;55.904;2023-02-05T01:07:09;108.00;;;55.90;;
60054;SDS011;45930;53.514;55.904;2023-02-05T01:08:10;115.13;;;56.87;;
60054;SDS011;45930;53.514;55.904;2023-02-05T01:09:12;117.22;;;56.05;;
60054;SDS011;45930;53.514;55.904;2023-02-05T01:10:13;109.80;;;57.50;;
60054;SDS011;45930;53.514;55.904;2023-02-05T01:11:14;106.22;;;52.80;;
60054;SDS011;45930;53.514;55.904;2023-02-05T01:12:15;102.27;;;54.77;;
60054;SDS011;45930;53.514;55.904;2023-02-05T01:13:16;114.47;;;52.87;;
60054;SDS011;45930;53.514;55.904;2023-02-05T01:14:18;106.63;;;52.80;;
60054;SDS011;45930;53.514;55.904;2023-02-05T01:15:19;116.60;;;55.23;;
60054;SDS011;45930;53.514;55.904;2023-02-05T01:16:20;106.10;;;56.95;;
60054;SDS011;45930;53.514;55.904;2023-02-05T01:17:20;115.77;;;57.03;;
60054;SDS011;45930;53.514;55.904;2023-02-05T01:18:22;112.10;;;56.40;;
60054;SDS011;45930;53.514;55.904;2023-02-05T01:19:23;108.53;;;54.60;;
60054;SDS011;45930;53.514;55.904;2023-02-05T01:20:24;125.13;;;59.27;;
60054;SDS011;45930;53.514;55.904;2023-02-05T01:21:25;115.90;;;58.22;;
60054;SDS011;45930;53.514;55.904;2023-02-05T01:22:25;120.70;;;56.20;;
60054;SDS011;45930;53.514;55.904;2023-02-05T01:23:26;120.93;;;55.13;;
60054;SDS011;45930;53.514;55.904;2023-02-05T01:24:27;112.37;;;57.27;;
60054;SDS011;45930;53.514;55.904;2023-02-05T01:25:28;119.90;;;55.93;;
60054;SDS011;45930;53.514;55.904;2023-02-05T01:26:29;116.50;;;58.07;;
60054;SDS011;45930;53.514;55.904;2023-02-05T01:27:31;117.97;;;54.83;;
60054;SDS011;45930;53.514;55.904;2023-02-05T01:28:32;116.35;;;56.28;;
60054;SDS011;45930;53.514;55.904;2023-02-05T01:29:33;113.30;;;57.03;;
60054;SDS011;45930;53.514;55.904;2023-02-05T01:30:34;105.37;;;54.07;;
60054;SDS011;45930;53.514;55.904;2023-02-05T01:31:35;103.97;;;53.78;;
60054;SDS011;45930;53.514;55.904;2023-02-05T01:32:36;107.40;;;52.03;;
60054;SDS011;45930;53.514;55.904;2023-02-05T01:33:37;103.97;;;52.47;;
60054;SDS011;45930;53.514;55.904;2023-02-05T01:34:38;117.47;;;57.40;;
60054;SDS011;45930;53.514;55.904;2023-02-05T01:35:39;125.90;;;58.30;;
60054;SDS011;45930;53.514;55.904;2023-02-05T01:36:41;110.47;;;53.50;;
60054;SDS011;45930;53.514;55.904;2023-02-05T01:37:43;111.87;;;54.30;;
60054;SDS011;45930;53.514;55.904;2023-02-05T01:38:43;111.32;;;53.65;;
60054;SDS011;45930;53.514;55.904;2023-02-05T01:39:44;104.73;;;54.37;;
60054;SDS011;45930;53.514;55.904;2023-02-05T01:40:45;106.50;;;51.47;;
60054;SDS011;45930;53.514;55.904;2023-02-05T01:41:46;111.47;;;52.07;;
60054;SDS011;45930;53.514;55.904;2023-02-05T01:42:47;109.00;;;53.63;;
60054;SDS011;45930;53.514;55.904;2023-02-05T01:46:23;117.35;;;53.33;;
60054;SDS011;45930;53.514;55.904;2023-02-05T01:47:28;101.95;;;51.42;;
60054;SDS011;45930;53.514;55.904;2023-02-05T01:48:31;112.37;;;54.60;;
60054;SDS011;45930;53.514;55.904;2023-02-05T01:49:41;106.40;;;54.55;;
60054;SDS011;45930;53.514;55.904;2023-02-05T01:50:47;96.05;;;50.45;;
60054;SDS011;45930;53.514;55.904;2023-02-05T01:51:55;101.50;;;49.10;;
60054;SDS011;45930;53.514;55.904;2023-02-05T01:53:01;110.25;;;53.80;;
60054;SDS011;45930;53.514;55.904;2023-02-05T01:54:05;107.68;;;52.90;;
60054;SDS011;45930;53.514;55.904;2023-02-05T01:55:07;111.70;;;52.53;;
60054;SDS011;45930;53.514;55.904;2023-02-05T01:56:13;103.15;;;52.55;;
60054;SDS011;45930;53.514;55.904;2023-02-05T01:57:26;105.85;;;51.83;;
60054;SDS011;45930;53.514;55.904;2023-02-05T01:58:29;107.25;;;52.70;;
60054;SDS011;45930;53.514;55.904;2023-02-05T01:59:34;103.50;;;51.83;;
60054;SDS011;45930;53.514;55.904;2023-02-05T02:00:38;104.72;;;52.45;;
60054;SDS011;45930;53.514;55.904;2023-02-05T02:01:39;107.40;;;50.47;;
60054;SDS011;45930;53.514;55.904;2023-02-05T02:02:40;110.70;;;53.65;;
60054;SDS011;45930;53.514;55.904;2023-02-05T02:03:41;103.55;;;52.25;;
60054;SDS011;45930;53.514;55.904;2023-02-05T02:04:44;106.88;;;53.20;;
60054;SDS011;45930;53.514;55.904;2023-02-05T02:05:49;98.90;;;46.45;;
60054;SDS011;45930;53.514;55.904;2023-02-05T02:06:50;99.90;;;50.03;;
60054;SDS011;45930;53.514;55.904;2023-02-05T02:07:51;108.43;;;51.63;;
60054;SDS011;45930;53.514;55.904;2023-02-05T02:08:51;102.77;;;48.93;;
60054;SDS011;45930;53.514;55.904;2023-02-05T02:09:52;116.00;;;52.70;;
60054;SDS011;45930;53.514;55.904;2023-02-05T02:10:54;109.05;;;53.83;;
60054;SDS011;45930;53.514;55.904;2023-02-05T02:11:57;122.55;;;54.17;;
60054;SDS011;45930;53.514;55.904;2023-02-05T02:12:58;107.77;;;49.93;;
60054;SDS011;45930;53.514;55.904;2023-02-05T02:14:00;99.55;;;51.33;;
60054;SDS011;45930;53.514;55.904;2023-02-05T02:15:08;102.53;;;51.03;;
60054;SDS011;45930;53.514;55.904;2023-02-05T02:16:12;99.57;;;48.97;;
60054;SDS011;45930;53.514;55.904;2023-02-05T02:17:15;115.20;;;51.80;;
60054;SDS011;45930;53.514;55.904;2023-02-05T02:18:17;103.80;;;50.42;;
60054;SDS011;45930;53.514;55.904;2023-02-05T02:19:29;112.55;;;52.22;;
60054;SDS011;45930;53.514;55.904;2023-02-05T02:20:37;109.93;;;51.88;;
60054;SDS011;45930;53.514;55.904;2023-02-05T02:23:25;108.10;;;49.75;;
60054;SDS011;45930;53.514;55.904;2023-02-05T02:24:52;106.43;;;48.15;;
60054;SDS011;45930;53.514;55.904;2023-02-05T02:27:33;98.68;;;51.67;;
60054;SDS011;45930;53.514;55.904;2023-02-05T02:28:35;123.88;;;53.70;;
60054;SDS011;45930;53.514;55.904;2023-02-05T02:31:01;120.00;;;55.67;;
60054;SDS011;45930;53.514;55.904;2023-02-05T02:32:30;113.57;;;53.50;;
60054;SDS011;45930;53.514;55.904;2023-02-05T02:34:46;115.15;;;57.03;;
60054;SDS011;45930;53.514;55.904;2023-02-05T02:37:04;123.30;;;57.83;;
60054;SDS011;45930;53.514;55.904;2023-02-05T02:38:11;121.30;;;57.38;;
60054;SDS011;45930;53.514;55.904;2023-02-05T02:39:18;115.07;;;55.60;;
60054;SDS011;45930;53.514;55.904;2023-02-05T02:40:27;117.53;;;56.63;;
60054;SDS011;45930;53.514;55.904;2023-02-05T02:41:37;110.43;;;52.95;;
60054;SDS011;45930;53.514;55.904;2023-02-05T02:42:49;128.45;;;60.08;;
60054;SDS011;45930;53.514;55.904;2023-02-05T02:43:58;125.70;;;57.63;;
60054;SDS011;45930;53.514;55.904;2023-02-05T02:45:07;114.35;;;57.83;;
60054;SDS011;45930;53.514;55.904;2023-02-05T02:46:22;140.02;;;65.43;;
60054;SDS011;45930;53.514;55.904;2023-02-05T02:47:46;132.27;;;60.40;;
60054;SDS011;45930;53.514;55.904;2023-02-05T02:48:51;127.30;;;58.97;;
60054;SDS011;45930;53.514;55.904;2023-02-05T02:49:56;123.68;;;56.00;;
60054;SDS011;45930;53.514;55.904;2023-02-05T02:50:58;116.57;;;59.45;;
60054;SDS011;45930;53.514;55.904;2023-02-05T02:52:01;129.00;;;58.70;;
60054;SDS011;45930;53.514;55.904;2023-02-05T02:53:16;119.47;;;58.67;;
60054;SDS011;45930;53.514;55.904;2023-02-05T02:54:20;126.22;;;60.00;;
60054;SDS011;45930;53.514;55.904;2023-02-05T02:55:21;126.38;;;59.47;;
60054;SDS011;45930;53.514;55.904;2023-02-05T02:56:25;137.13;;;64.20;;
60054;SDS011;45930;53.514;55.904;2023-02-05T02:57:28;134.65;;;63.75;;
60054;SDS011;45930;53.514;55.904;2023-02-05T02:58:34;137.17;;;66.57;;
60054;SDS011;45930;53.514;55.904;2023-02-05T02:59:42;136.27;;;60.15;;
60054;SDS011;45930;53.514;55.904;2023-02-05T03:00:46;144.30;;;61.50;;
60054;SDS011;45930;53.514;55.904;2023-02-05T03:01:49;120.03;;;61.38;;
60054;SDS011;45930;53.514;55.904;2023-02-05T03:02:57;123.20;;;61.28;;
60054;SDS011;45930;53.514;55.904;2023-02-05T03:04:08;126.03;;;61.40;;
60054;SDS011;45930;53.514;55.904;2023-02-05T03:05:14;123.18;;;61.38;;
60054;SDS011;45930;53.514;55.904;2023-02-05T03:06:19;130.50;;;63.55;;
60054;SDS011;45930;53.514;55.904;2023-02-05T03:07:25;129.73;;;62.03;;
60054;SDS011;45930;53.514;55.904;2023-02-05T03:08:52;132.95;;;66.38;;
60054;SDS011;45930;53.514;55.904;2023-02-05T03:11:03;130.32;;;61.35;;
60054;SDS011;45930;53.514;55.904;2023-02-05T03:12:09;129.55;;;62.40;;
60054;SDS011;45930;53.514;55.904;2023-02-05T03:13:10;134.60;;;65.37;;
60054;SDS011;45930;53.514;55.904;2023-02-05T03:14:12;140.18;;;67.10;;
60054;SDS011;45930;53.514;55.904;2023-02-05T03:15:13;130.90;;;64.87;;
60054;SDS011;45930;53.514;55.904;2023-02-05T03:16:14;130.00;;;64.80;;
60054;SDS011;45930;53.514;55.904;2023-02-05T03:17:17;133.48;;;65.07;;
60054;SDS011;45930;53.514;55.904;2023-02-05T03:18:19;134.63;;;64.85;;
60054;SDS011;45930;53.514;55.904;2023-02-05T03:19:20;138.10;;;65.00;;
60054;SDS011;45930;53.514;55.904;2023-02-05T03:20:27;125.13;;;65.23;;
60054;SDS011;45930;53.514;55.904;2023-02-05T03:21:53;133.65;;;64.30;;
60054;SDS011;45930;53.514;55.904;2023-02-05T03:22:56;127.40;;;62.33;;
60054;SDS011;45930;53.514;55.904;2023-02-05T03:23:57;137.88;;;63.15;;
60054;SDS011;45930;53.514;55.904;2023-02-05T03:24:58;129.07;;;62.73;;
60054;SDS011;45930;53.514;55.904;2023-02-05T03:26:00;130.18;;;63.63;;
60054;SDS011;45930;53.514;55.904;2023-02-05T03:27:01;137.30;;;66.03;;
60054;SDS011;45930;53.514;55.904;2023-02-05T03:28:02;132.53;;;65.37;;
60054;SDS011;45930;53.514;55.904;2023-02-05T03:29:08;139.00;;;67.78;;
60054;SDS011;45930;53.514;55.904;2023-02-05T03:31:16;134.20;;;59.27;;
60054;SDS011;45930;53.514;55.904;2023-02-05T03:35:43;133.23;;;65.18;;
60054;SDS011;45930;53.514;55.904;2023-02-05T03:36:55;131.55;;;62.00;;
60054;SDS011;45930;53.514;55.904;2023-02-05T03:39:21;136.43;;;60.95;;
60054;SDS011;45930;53.514;55.904;2023-02-05T03:44:21;117.43;;;55.95;;
60054;SDS011;45930;53.514;55.904;2023-02-05T03:49:57;114.72;;;57.42;;
60054;SDS011;45930;53.514;55.904;2023-02-05T03:52:32;118.50;;;55.58;;
60054;SDS011;45930;53.514;55.904;2023-02-05T03:56:34;106.07;;;50.72;;
60054;SDS011;45930;53.514;55.904;2023-02-05T03:58:41;111.53;;;53.65;;
60054;SDS011;45930;53.514;55.904;2023-02-05T03:59:46;109.50;;;54.92;;
60054;SDS011;45930;53.514;55.904;2023-02-05T04:00:48;107.63;;;57.78;;
60054;SDS011;45930;53.514;55.904;2023-02-05T04:01:49;111.45;;;56.05;;
60054;SDS011;45930;53.514;55.904;2023-02-05T04:02:50;124.63;;;58.45;;
60054;SDS011;45930;53.514;55.904;2023-02-05T04:03:51;112.73;;;55.63;;
60054;SDS011;45930;53.514;55.904;2023-02-05T04:04:51;108.23;;;54.60;;
60054;SDS011;45930;53.514;55.904;2023-02-05T04:05:52;116.57;;;57.20;;
60054;SDS011;45930;53.514;55.904;2023-02-05T04:06:54;125.05;;;59.92;;
60054;SDS011;45930;53.514;55.904;2023-02-05T04:07:54;123.93;;;60.70;;
60054;SDS011;45930;53.514;55.904;2023-02-05T04:08:55;119.50;;;61.47;;
60054;SDS011;45930;53.514;55.904;2023-02-05T04:09:56;126.93;;;59.03;;
60054;SDS011;45930;53.514;55.904;2023-02-05T04:10:57;114.17;;;56.60;;
60054;SDS011;45930;53.514;55.904;2023-02-05T04:11:57;121.20;;;57.00;;
60054;SDS011;45930;53.514;55.904;2023-02-05T04:12:58;112.40;;;55.73;;
60054;SDS011;45930;53.514;55.904;2023-02-05T04:13:59;117.60;;;56.03;;
60054;SDS011;45930;53.514;55.904;2023-02-05T04:15:00;108.33;;;53.13;;
60054;SDS011;45930;53.514;55.904;2023-02-05T04:16:01;111.20;;;55.27;;
60054;SDS011;45930;53.514;55.904;2023-02-05T04:17:01;103.83;;;53.10;;
60054;SDS011;45930;53.514;55.904;2023-02-05T04:18:02;114.60;;;54.03;;
60054;SDS011;45930;53.514;55.904;2023-02-05T04:19:03;109.40;;;52.70;;
60054;SDS011;45930;53.514;55.904;2023-02-05T04:20:04;111.23;;;54.07;;
60054;SDS011;45930;53.514;55.904;2023-02-05T04:21:06;95.32;;;49.72;;
60054;SDS011;45930;53.514;55.904;2023-02-05T04:22:06;105.00;;;51.30;;
60054;SDS011;45930;53.514;55.904;2023-02-05T04:23:07;103.50;;;54.10;;
60054;SDS011;45930;53.514;55.904;2023-02-05T04:24:09;100.05;;;52.83;;
60054;SDS011;45930;53.514;55.904;2023-02-05T04:25:10;113.15;;;54.70;;
60054;SDS011;45930;53.514;55.904;2023-02-05T04:26:10;108.90;;;54.97;;
60054;SDS011;45930;53.514;55.904;2023-02-05T04:27:12;111.63;;;56.07;;
60054;SDS011;45930;53.514;55.904;2023-02-05T04:28:13;102.40;;;56.25;;
60054;SDS011;45930;53.514;55.904;2023-02-05T04:29:14;109.70;;;56.80;;
60054;SDS011;45930;53.514;55.904;2023-02-05T04:30:15;120.17;;;59.13;;
60054;SDS011;45930;53.514;55.904;2023-02-05T04:31:16;103.70;;;52.67;;
60054;SDS011;45930;53.514;55.904;2023-02-05T04:32:17;114.32;;;54.00;;
60054;SDS011;45930;53.514;55.904;2023-02-05T04:33:18;110.20;;;54.00;;
60054;SDS011;45930;53.514;55.904;2023-02-05T04:34:18;113.50;;;54.90;;
60054;SDS011;45930;53.514;55.904;2023-02-05T04:35:19;105.00;;;53.83;;
60054;SDS011;45930;53.514;55.904;2023-02-05T04:36:20;114.30;;;55.97;;
60054;SDS011;45930;53.514;55.904;2023-02-05T04:37:21;111.93;;;55.47;;
60054;SDS011;45930;53.514;55.904;2023-02-05T04:38:21;116.00;;;55.27;;
60054;SDS011;45930;53.514;55.904;2023-02-05T04:39:22;116.03;;;53.40;;
60054;SDS011;45930;53.514;55.904;2023-02-05T04:40:23;116.33;;;56.87;;
60054;SDS011;45930;53.514;55.904;2023-02-05T04:41:24;107.03;;;55.93;;
60054;SDS011;45930;53.514;55.904;2023-02-05T04:42:24;108.53;;;53.17;;
60054;SDS011;45930;53.514;55.904;2023-02-05T04:43:25;112.40;;;54.53;;
60054;SDS011;45930;53.514;55.904;2023-02-05T04:44:27;115.25;;;54.05;;
60054;SDS011;45930;53.514;55.904;2023-02-05T04:45:28;99.93;;;52.35;;
60054;SDS011;45930;53.514;55.904;2023-02-05T04:46:30;105.95;;;53.92;;
60054;SDS011;45930;53.514;55.904;2023-02-05T04:47:31;97.30;;;50.07;;
60054;SDS011;45930;53.514;55.904;2023-02-05T04:48:32;99.63;;;48.47;;
60054;SDS011;45930;53.514;55.904;2023-02-05T04:49:34;108.45;;;54.42;;
60054;SDS011;45930;53.514;55.904;2023-02-05T04:50:36;105.47;;;53.77;;
60054;SDS011;45930;53.514;55.904;2023-02-05T04:51:38;102.45;;;51.03;;
60054;SDS011;45930;53.514;55.904;2023-02-05T04:52:38;113.80;;;51.90;;
60054;SDS011;45930;53.514;55.904;2023-02-05T04:53:40;103.40;;;52.50;;
60054;SDS011;45930;53.514;55.904;2023-02-05T04:54:40;116.53;;;53.70;;
60054;SDS011;45930;53.514;55.904;2023-02-05T04:55:41;102.30;;;51.60;;
60054;SDS011;45930;53.514;55.904;2023-02-05T04:56:42;104.23;;;51.33;;
60054;SDS011;45930;53.514;55.904;2023-02-05T04:57:44;118.35;;;53.50;;
60054;SDS011;45930;53.514;55.904;2023-02-05T04:58:44;111.70;;;53.27;;
60054;SDS011;45930;53.514;55.904;2023-02-05T04:59:45;106.13;;;53.27;;
60054;SDS011;45930;53.514;55.904;2023-02-05T05:00:46;109.90;;;54.43;;
60054;SDS011;45930;53.514;55.904;2023-02-05T05:01:47;116.67;;;57.40;;
60054;SDS011;45930;53.514;55.904;2023-02-05T05:02:47;107.87;;;53.93;;
60054;SDS011;45930;53.514;55.904;2023-02-05T05:03:48;108.70;;;55.77;;
60054;SDS011;45930;53.514;55.904;2023-02-05T05:04:50;115.05;;;55.55;;
60054;SDS011;45930;53.514;55.904;2023-02-05T05:05:50;110.37;;;53.13;;
60054;SDS011;45930;53.514;55.904;2023-02-05T05:06:51;116.17;;;55.43;;
60054;SDS011;45930;53.514;55.904;2023-02-05T05:07:52;100.73;;;53.77;;
60054;SDS011;45930;53.514;55.904;2023-02-05T05:08:53;109.83;;;52.77;;
60054;SDS011;45930;53.514;55.904;2023-02-05T05:09:53;95.63;;;50.17;;
60054;SDS011;45930;53.514;55.904;2023-02-05T05:10:54;103.70;;;49.97;;
60054;SDS011;45930;53.514;55.904;2023-02-05T05:11:56;99.07;;;50.97;;
60054;SDS011;45930;53.514;55.904;2023-02-05T05:12:56;103.93;;;52.30;;
60054;SDS011;45930;53.514;55.904;2023-02-05T05:13:57;97.70;;;49.53;;
60054;SDS011;45930;53.514;55.904;2023-02-05T05:15:00;89.97;;;49.25;;
60054;SDS011;45930;53.514;55.904;2023-02-05T05:16:04;104.97;;;49.20;;
60054;SDS011;45930;53.514;55.904;2023-02-05T05:17:06;102.70;;;49.90;;
60054;SDS011;45930;53.514;55.904;2023-02-05T05:18:06;95.37;;;48.93;;
60054;SDS011;45930;53.514;55.904;2023-02-05T05:19:07;93.47;;;46.60;;
60054;SDS011;45930;53.514;55.904;2023-02-05T05:20:08;92.77;;;49.63;;
60054;SDS011;45930;53.514;55.904;2023-02-05T05:21:09;105.40;;;48.22;;
60054;SDS011;45930;53.514;55.904;2023-02-05T05:22:10;95.35;;;46.17;;
60054;SDS011;45930;53.514;55.904;2023-02-05T05:23:11;87.70;;;47.53;;
60054;SDS011;45930;53.514;55.904;2023-02-05T05:24:12;91.80;;;47.83;;
60054;SDS011;45930;53.514;55.904;2023-02-05T05:25:13;88.03;;;46.67;;
60054;SDS011;45930;53.514;55.904;2023-02-05T05:26:14;82.80;;;44.67;;
60054;SDS011;45930;53.514;55.904;2023-02-05T05:27:14;91.17;;;42.13;;
60054;SDS011;45930;53.514;55.904;2023-02-05T05:28:16;80.00;;;42.22;;
60054;SDS011;45930;53.514;55.904;2023-02-05T05:29:17;80.82;;;42.00;;
60054;SDS011;45930;53.514;55.904;2023-02-05T05:30:18;73.43;;;42.47;;
60054;SDS011;45930;53.514;55.904;2023-02-05T05:31:18;76.37;;;40.67;;
60054;SDS011;45930;53.514;55.904;2023-02-05T05:32:20;76.65;;;38.78;;
60054;SDS011;45930;53.514;55.904;2023-02-05T05:33:20;72.23;;;39.20;;
60054;SDS011;45930;53.514;55.904;2023-02-05T05:34:21;73.77;;;38.43;;
60054;SDS011;45930;53.514;55.904;2023-02-05T05:35:22;78.93;;;41.67;;
60054;SDS011;45930;53.514;55.904;2023-02-05T05:36:23;74.10;;;40.67;;
60054;SDS011;45930;53.514;55.904;2023-02-05T05:37:23;71.20;;;40.27;;
60054;SDS011;45930;53.514;55.904;2023-02-05T05:38:24;75.80;;;41.03;;
60054;SDS011;45930;53.514;55.904;2023-02-05T05:39:25;77.03;;;42.40;;
60054;SDS011;45930;53.514;55.904;2023-02-05T05:40:44;87.25;;;44.22;;
60054;SDS011;45930;53.514;55.904;2023-02-05T05:42:08;88.72;;;46.03;;
60054;SDS011;45930;53.514;55.904;2023-02-05T05:43:28;85.68;;;45.80;;
60054;SDS011;45930;53.514;55.904;2023-02-05T05:44:47;87.10;;;45.05;;
60054;SDS011;45930;53.514;55.904;2023-02-05T05:45:51;86.85;;;45.25;;
60054;SDS011;45930;53.514;55.904;2023-02-05T05:46:52;86.23;;;46.13;;
60054;SDS011;45930;53.514;55.904;2023-02-05T05:47:52;91.07;;;45.97;;
60054;SDS011;45930;53.514;55.904;2023-02-05T05:48:55;88.85;;;45.13;;
60054;SDS011;45930;53.514;55.904;2023-02-05T05:49:58;92.20;;;44.15;;
60054;SDS011;45930;53.514;55.904;2023-02-05T05:50:58;82.53;;;42.53;;
60054;SDS011;45930;53.514;55.904;2023-02-05T05:51:59;80.53;;;43.03;;
60054;SDS011;45930;53.514;55.904;2023-02-05T05:53:00;90.10;;;43.30;;
60054;SDS011;45930;53.514;55.904;2023-02-05T05:54:01;76.00;;;38.47;;
60054;SDS011;45930;53.514;55.904;2023-02-05T05:55:02;74.23;;;38.30;;
60054;SDS011;45930;53.514;55.904;2023-02-05T05:56:03;77.10;;;40.67;;
60054;SDS011;45930;53.514;55.904;2023-02-05T05:57:05;81.65;;;40.75;;
60054;SDS011;45930;53.514;55.904;2023-02-05T05:58:07;75.15;;;40.53;;
60054;SDS011;45930;53.514;55.904;2023-02-05T05:59:10;70.25;;;37.63;;
60054;SDS011;45930;53.514;55.904;2023-02-05T06:00:12;80.32;;;41.35;;
60054;SDS011;45930;53.514;55.904;2023-02-05T06:01:14;75.35;;;41.13;;
60054;SDS011;45930;53.514;55.904;2023-02-05T06:02:16;82.38;;;40.85;;
60054;SDS011;45930;53.514;55.904;2023-02-05T06:03:17;82.87;;;41.10;;
60054;SDS011;45930;53.514;55.904;2023-02-05T06:04:18;81.03;;;41.27;;
60054;SDS011;45930;53.514;55.904;2023-02-05T06:05:18;85.97;;;39.43;;
60054;SDS011;45930;53.514;55.904;2023-02-05T06:06:19;74.60;;;38.60;;
60054;SDS011;45930;53.514;55.904;2023-02-05T06:07:20;69.83;;;39.53;;
60054;SDS011;45930;53.514;55.904;2023-02-05T06:08:21;72.27;;;38.50;;
60054;SDS011;45930;53.514;55.904;2023-02-05T06:09:22;66.70;;;38.10;;
60054;SDS011;45930;53.514;55.904;2023-02-05T06:10:26;77.10;;;40.83;;
60054;SDS011;45930;53.514;55.904;2023-02-05T06:11:27;75.80;;;38.53;;
60054;SDS011;45930;53.514;55.904;2023-02-05T06:12:27;81.23;;;41.10;;
60054;SDS011;45930;53.514;55.904;2023-02-05T06:13:28;83.23;;;39.13;;
60054;SDS011;45930;53.514;55.904;2023-02-05T06:14:29;79.90;;;41.07;;
60054;SDS011;45930;53.514;55.904;2023-02-05T06:15:30;80.63;;;39.60;;
60054;SDS011;45930;53.514;55.904;2023-02-05T06:16:31;87.57;;;41.60;;
60054;SDS011;45930;53.514;55.904;2023-02-05T06:17:31;70.70;;;38.37;;
60054;SDS011;45930;53.514;55.904;2023-02-05T06:18:32;68.10;;;40.33;;
60054;SDS011;45930;53.514;55.904;2023-02-05T06:19:33;77.40;;;40.00;;
60054;SDS011;45930;53.514;55.904;2023-02-05T06:20:36;73.80;;;39.10;;
60054;SDS011;45930;53.514;55.904;2023-02-05T06:21:37;76.03;;;37.73;;
60054;SDS011;45930;53.514;55.904;2023-02-05T06:22:38;78.07;;;38.90;;
60054;SDS011;45930;53.514;55.904;2023-02-05T06:23:39;71.95;;;38.15;;
60054;SDS011;45930;53.514;55.904;2023-02-05T06:24:40;70.73;;;37.80;;
60054;SDS011;45930;53.514;55.904;2023-02-05T06:25:41;73.80;;;37.57;;
60054;SDS011;45930;53.514;55.904;2023-02-05T06:26:41;65.23;;;37.07;;
60054;SDS011;45930;53.514;55.904;2023-02-05T06:27:42;79.17;;;39.60;;